Aviation Digital Data Service (ADDS)

Output produced by METARs form (2014 UTC 20 August 2019)
found at http://www.aviationweather.gov/metar/data/
 
METAR text: FOOL 202000Z 23006KT 9999 FEW013 26/23 Q1014 NOSIG
Conditions at: FOOL (LIBREVILLE/LEON , GA) observed 2000 UTC 20 August 2019
Temperature: 26.0°C (79°F)
Dewpoint: 23.0°C (73°F) [RH = 84%]
Pressure (altimeter): 29.94 inches Hg (1014.0 mb)
Winds: from the SW (230 degrees) at 7 MPH (6 knots; 3.1 m/s)
Visibility: 6 or more miles (10+ km)
Ceiling: at least 12,000 feet AGL
Clouds: few clouds at 1300 feet AGL
Weather: no significant weather observed at this time

METAR text: FOOL 201930Z 24007KT 200V290 9999 FEW015 SCT013 26/22 Q1013 NOSIG
Conditions at: FOOL (LIBREVILLE/LEON , GA) observed 1930 UTC 20 August 2019
Temperature: 26.0°C (79°F)
Dewpoint: 22.0°C (72°F) [RH = 79%]
Pressure (altimeter): 29.91 inches Hg (1013.0 mb)
Winds: from the WSW (240 degrees) at 8 MPH (7 knots; 3.6 m/s)
Visibility: 6 or more miles (10+ km)
Ceiling: at least 12,000 feet AGL
Clouds: few clouds at 1500 feet AGL
scattered clouds at 1300 feet AGL
Weather: no significant weather observed at this time

METAR text: FOOL 201900Z 24007KT 210V280 9999 FEW015 SCT044 26/22 Q1013 NOSIG
Conditions at: FOOL (LIBREVILLE/LEON , GA) observed 1900 UTC 20 August 2019
Temperature: 26.0°C (79°F)
Dewpoint: 22.0°C (72°F) [RH = 79%]
Pressure (altimeter): 29.91 inches Hg (1013.0 mb)
Winds: from the WSW (240 degrees) at 8 MPH (7 knots; 3.6 m/s)
Visibility: 6 or more miles (10+ km)
Ceiling: at least 12,000 feet AGL
Clouds: few clouds at 1500 feet AGL
scattered clouds at 4400 feet AGL
Weather: no significant weather observed at this time

METAR text: FOOL 201830Z 24006KT 210V280 9999 FEW015 SCT044 26/22 Q1013 NOSIG
Conditions at: FOOL (LIBREVILLE/LEON , GA) observed 1830 UTC 20 August 2019
Temperature: 26.0°C (79°F)
Dewpoint: 22.0°C (72°F) [RH = 79%]
Pressure (altimeter): 29.91 inches Hg (1013.0 mb)
Winds: from the WSW (240 degrees) at 7 MPH (6 knots; 3.1 m/s)
Visibility: 6 or more miles (10+ km)
Ceiling: at least 12,000 feet AGL
Clouds: few clouds at 1500 feet AGL
scattered clouds at 4400 feet AGL
Weather: no significant weather observed at this time

METAR text: FOOL 201800Z 23006KT 200V270 9999 FEW015 BKN044 26/22 Q1013 NOSIG
Conditions at: FOOL (LIBREVILLE/LEON , GA) observed 1800 UTC 20 August 2019
Temperature: 26.0°C (79°F)
Dewpoint: 22.0°C (72°F) [RH = 79%]
Pressure (altimeter): 29.91 inches Hg (1013.0 mb)
Winds: from the SW (230 degrees) at 7 MPH (6 knots; 3.1 m/s)
Visibility: 6 or more miles (10+ km)
Ceiling: 4400 feet AGL
Clouds: few clouds at 1500 feet AGL
broken clouds at 4400 feet AGL
Weather: no significant weather observed at this time

METAR text: FOOL 201730Z 24007KT 9999 FEW015 BKN044 26/22 Q1012 NOSIG
Conditions at: FOOL (LIBREVILLE/LEON , GA) observed 1730 UTC 20 August 2019
Temperature: 26.0°C (79°F)
Dewpoint: 22.0°C (72°F) [RH = 79%]
Pressure (altimeter): 29.88 inches Hg (1012.0 mb)
Winds: from the WSW (240 degrees) at 8 MPH (7 knots; 3.6 m/s)
Visibility: 6 or more miles (10+ km)
Ceiling: 4400 feet AGL
Clouds: few clouds at 1500 feet AGL
broken clouds at 4400 feet AGL
Weather: no significant weather observed at this time

METAR text: FOOL 201700Z 24007KT 210V270 9999 FEW015 26/22 Q1012 NOSIG
Conditions at: FOOL (LIBREVILLE/LEON , GA) observed 1700 UTC 20 August 2019
Temperature: 26.0°C (79°F)
Dewpoint: 22.0°C (72°F) [RH = 79%]
Pressure (altimeter): 29.88 inches Hg (1012.0 mb)
Winds: from the WSW (240 degrees) at 8 MPH (7 knots; 3.6 m/s)
Visibility: 6 or more miles (10+ km)
Ceiling: at least 12,000 feet AGL
Clouds: few clouds at 1500 feet AGL
Weather: no significant weather observed at this time

METAR text: FOOL 201630Z 25008KT 9999 FEW015 27/23 Q1012 NOSIG
Conditions at: FOOL (LIBREVILLE/LEON , GA) observed 1630 UTC 20 August 2019
Temperature: 27.0°C (81°F)
Dewpoint: 23.0°C (73°F) [RH = 79%]
Pressure (altimeter): 29.88 inches Hg (1012.0 mb)
Winds: from the WSW (250 degrees) at 9 MPH (8 knots; 4.1 m/s)
Visibility: 6 or more miles (10+ km)
Ceiling: at least 12,000 feet AGL
Clouds: few clouds at 1500 feet AGL
Weather: no significant weather observed at this time

METAR text: FOOL 201600Z 25007KT 9999 FEW015 27/23 Q1012 NOSIG
Conditions at: FOOL (LIBREVILLE/LEON , GA) observed 1600 UTC 20 August 2019
Temperature: 27.0°C (81°F)
Dewpoint: 23.0°C (73°F) [RH = 79%]
Pressure (altimeter): 29.88 inches Hg (1012.0 mb)
Winds: from the WSW (250 degrees) at 8 MPH (7 knots; 3.6 m/s)
Visibility: 6 or more miles (10+ km)
Ceiling: at least 12,000 feet AGL
Clouds: few clouds at 1500 feet AGL
Weather: no significant weather observed at this time

METAR text: FOOL 201530Z 25008KT 9999 FEW015 27/22 Q1011 NOSIG
Conditions at: FOOL (LIBREVILLE/LEON , GA) observed 1530 UTC 20 August 2019
Temperature: 27.0°C (81°F)
Dewpoint: 22.0°C (72°F) [RH = 74%]
Pressure (altimeter): 29.85 inches Hg (1011.0 mb)
Winds: from the WSW (250 degrees) at 9 MPH (8 knots; 4.1 m/s)
Visibility: 6 or more miles (10+ km)
Ceiling: at least 12,000 feet AGL
Clouds: few clouds at 1500 feet AGL
Weather: no significant weather observed at this time

METAR text: FOOL 201500Z 25008KT 210V280 9999 FEW015 27/23 Q1012 NOSIG
Conditions at: FOOL (LIBREVILLE/LEON , GA) observed 1500 UTC 20 August 2019
Temperature: 27.0°C (81°F)
Dewpoint: 23.0°C (73°F) [RH = 79%]
Pressure (altimeter): 29.88 inches Hg (1012.0 mb)
Winds: from the WSW (250 degrees) at 9 MPH (8 knots; 4.1 m/s)
Visibility: 6 or more miles (10+ km)
Ceiling: at least 12,000 feet AGL
Clouds: few clouds at 1500 feet AGL
Weather: no significant weather observed at this time

METAR text: FOOL 201430Z 25010KT 210V270 9999 FEW015 28/22 Q1011 NOSIG
Conditions at: FOOL (LIBREVILLE/LEON , GA) observed 1430 UTC 20 August 2019
Temperature: 28.0°C (82°F)
Dewpoint: 22.0°C (72°F) [RH = 70%]
Pressure (altimeter): 29.85 inches Hg (1011.0 mb)
Winds: from the WSW (250 degrees) at 12 MPH (10 knots; 5.1 m/s)
Visibility: 6 or more miles (10+ km)
Ceiling: at least 12,000 feet AGL
Clouds: few clouds at 1500 feet AGL
Weather: no significant weather observed at this time

METAR text: FOOL 201400Z 23009KT 160V260 9999 FEW015 28/22 Q1012 NOSIG
Conditions at: FOOL (LIBREVILLE/LEON , GA) observed 1400 UTC 20 August 2019
Temperature: 28.0°C (82°F)
Dewpoint: 22.0°C (72°F) [RH = 70%]
Pressure (altimeter): 29.88 inches Hg (1012.0 mb)
Winds: from the SW (230 degrees) at 10 MPH (9 knots; 4.6 m/s)
Visibility: 6 or more miles (10+ km)
Ceiling: at least 12,000 feet AGL
Clouds: few clouds at 1500 feet AGL
Weather: no significant weather observed at this time

METAR text: FOOL 201330Z 24008KT 200V270 9999 FEW015 28/22 Q1012 NOSIG
Conditions at: FOOL (LIBREVILLE/LEON , GA) observed 1330 UTC 20 August 2019
Temperature: 28.0°C (82°F)
Dewpoint: 22.0°C (72°F) [RH = 70%]
Pressure (altimeter): 29.88 inches Hg (1012.0 mb)
Winds: from the WSW (240 degrees) at 9 MPH (8 knots; 4.1 m/s)
Visibility: 6 or more miles (10+ km)
Ceiling: at least 12,000 feet AGL
Clouds: few clouds at 1500 feet AGL
Weather: no significant weather observed at this time

METAR text: FOOL 201300Z 23008KT 200V260 9999 FEW015 28/22 Q1012 NOSIG
Conditions at: FOOL (LIBREVILLE/LEON , GA) observed 1300 UTC 20 August 2019
Temperature: 28.0°C (82°F)
Dewpoint: 22.0°C (72°F) [RH = 70%]
Pressure (altimeter): 29.88 inches Hg (1012.0 mb)
Winds: from the SW (230 degrees) at 9 MPH (8 knots; 4.1 m/s)
Visibility: 6 or more miles (10+ km)
Ceiling: at least 12,000 feet AGL
Clouds: few clouds at 1500 feet AGL
Weather: no significant weather observed at this time

METAR text: FOOL 201230Z 23008KT 210V280 9999 FEW013 28/22 Q1012 NOSIG
Conditions at: FOOL (LIBREVILLE/LEON , GA) observed 1230 UTC 20 August 2019
Temperature: 28.0°C (82°F)
Dewpoint: 22.0°C (72°F) [RH = 70%]
Pressure (altimeter): 29.88 inches Hg (1012.0 mb)
Winds: from the SW (230 degrees) at 9 MPH (8 knots; 4.1 m/s)
Visibility: 6 or more miles (10+ km)
Ceiling: at least 12,000 feet AGL
Clouds: few clouds at 1300 feet AGL
Weather: no significant weather observed at this time

METAR text: FOOL 201200Z 24008KT 210V270 9999 FEW014 28/22 Q1013 NOSIG
Conditions at: FOOL (LIBREVILLE/LEON , GA) observed 1200 UTC 20 August 2019
Temperature: 28.0°C (82°F)
Dewpoint: 22.0°C (72°F) [RH = 70%]
Pressure (altimeter): 29.91 inches Hg (1013.0 mb)
Winds: from the WSW (240 degrees) at 9 MPH (8 knots; 4.1 m/s)
Visibility: 6 or more miles (10+ km)
Ceiling: at least 12,000 feet AGL
Clouds: few clouds at 1400 feet AGL
Weather: no significant weather observed at this time

METAR text: FOOL 201130Z 25006KT 210V280 9999 FEW014 28/22 Q1013 NOSIG
Conditions at: FOOL (LIBREVILLE/LEON , GA) observed 1130 UTC 20 August 2019
Temperature: 28.0°C (82°F)
Dewpoint: 22.0°C (72°F) [RH = 70%]
Pressure (altimeter): 29.91 inches Hg (1013.0 mb)
Winds: from the WSW (250 degrees) at 7 MPH (6 knots; 3.1 m/s)
Visibility: 6 or more miles (10+ km)
Ceiling: at least 12,000 feet AGL
Clouds: few clouds at 1400 feet AGL
Weather: no significant weather observed at this time

METAR text: FOOL 201100Z 26005KT 210V320 9999 FEW013 28/22 Q1014 NOSIG
Conditions at: FOOL (LIBREVILLE/LEON , GA) observed 1100 UTC 20 August 2019
Temperature: 28.0°C (82°F)
Dewpoint: 22.0°C (72°F) [RH = 70%]
Pressure (altimeter): 29.94 inches Hg (1014.0 mb)
Winds: from the W (260 degrees) at 6 MPH (5 knots; 2.6 m/s)
Visibility: 6 or more miles (10+ km)
Ceiling: at least 12,000 feet AGL
Clouds: few clouds at 1300 feet AGL
Weather: no significant weather observed at this time

METAR text: FOOL 201030Z 22004KT 170V280 9999 FEW013 28/22 Q1014 NOSIG
Conditions at: FOOL (LIBREVILLE/LEON , GA) observed 1030 UTC 20 August 2019
Temperature: 28.0°C (82°F)
Dewpoint: 22.0°C (72°F) [RH = 70%]
Pressure (altimeter): 29.94 inches Hg (1014.0 mb)
Winds: from the SW (220 degrees) at 5 MPH (4 knots; 2.1 m/s)
Visibility: 6 or more miles (10+ km)
Ceiling: at least 12,000 feet AGL
Clouds: few clouds at 1300 feet AGL
Weather: no significant weather observed at this time

METAR text: FOOL 201000Z 20005KT 150V230 9999 FEW013 28/22 Q1014 NOSIG
Conditions at: FOOL (LIBREVILLE/LEON , GA) observed 1000 UTC 20 August 2019
Temperature: 28.0°C (82°F)
Dewpoint: 22.0°C (72°F) [RH = 70%]
Pressure (altimeter): 29.94 inches Hg (1014.0 mb)
Winds: from the SSW (200 degrees) at 6 MPH (5 knots; 2.6 m/s)
Visibility: 6 or more miles (10+ km)
Ceiling: at least 12,000 feet AGL
Clouds: few clouds at 1300 feet AGL
Weather: no significant weather observed at this time

METAR text: FOOL 200930Z 17005KT 130V220 9999 FEW013 27/22 Q1015 NOSIG
Conditions at: FOOL (LIBREVILLE/LEON , GA) observed 0930 UTC 20 August 2019
Temperature: 27.0°C (81°F)
Dewpoint: 22.0°C (72°F) [RH = 74%]
Pressure (altimeter): 29.97 inches Hg (1015.0 mb)
Winds: from the S (170 degrees) at 6 MPH (5 knots; 2.6 m/s)
Visibility: 6 or more miles (10+ km)
Ceiling: at least 12,000 feet AGL
Clouds: few clouds at 1300 feet AGL
Weather: no significant weather observed at this time

METAR text: FOOL 200900Z 17007KT 140V220 9999 FEW012 27/22 Q1015 NOSIG
Conditions at: FOOL (LIBREVILLE/LEON , GA) observed 0900 UTC 20 August 2019
Temperature: 27.0°C (81°F)
Dewpoint: 22.0°C (72°F) [RH = 74%]
Pressure (altimeter): 29.97 inches Hg (1015.0 mb)
Winds: from the S (170 degrees) at 8 MPH (7 knots; 3.6 m/s)
Visibility: 6 or more miles (10+ km)
Ceiling: at least 12,000 feet AGL
Clouds: few clouds at 1200 feet AGL
Weather: no significant weather observed at this time

METAR text: FOOL 200830Z 17008KT 9999 FEW012 26/22 Q1015 NOSIG
Conditions at: FOOL (LIBREVILLE/LEON , GA) observed 0830 UTC 20 August 2019
Temperature: 26.0°C (79°F)
Dewpoint: 22.0°C (72°F) [RH = 79%]
Pressure (altimeter): 29.97 inches Hg (1015.0 mb)
Winds: from the S (170 degrees) at 9 MPH (8 knots; 4.1 m/s)
Visibility: 6 or more miles (10+ km)
Ceiling: at least 12,000 feet AGL
Clouds: few clouds at 1200 feet AGL
Weather: no significant weather observed at this time

METAR text: FOOL 200800Z 17009KT 9999 FEW012 26/22 Q1014 NOSIG
Conditions at: FOOL (LIBREVILLE/LEON , GA) observed 0800 UTC 20 August 2019
Temperature: 26.0°C (79°F)
Dewpoint: 22.0°C (72°F) [RH = 79%]
Pressure (altimeter): 29.94 inches Hg (1014.0 mb)
Winds: from the S (170 degrees) at 10 MPH (9 knots; 4.6 m/s)
Visibility: 6 or more miles (10+ km)
Ceiling: at least 12,000 feet AGL
Clouds: few clouds at 1200 feet AGL
Weather: no significant weather observed at this time

METAR text: FOOL 200730Z 16010KT 9000 SCT011 25/21 Q1015 NOSIG
Conditions at: FOOL (LIBREVILLE/LEON , GA) observed 0730 UTC 20 August 2019
Temperature: 25.0°C (77°F)
Dewpoint: 21.0°C (70°F) [RH = 79%]
Pressure (altimeter): 29.97 inches Hg (1015.0 mb)
Winds: from the SSE (160 degrees) at 12 MPH (10 knots; 5.1 m/s)
Visibility: 6 miles ( 9 km)
Ceiling: at least 12,000 feet AGL
Clouds: scattered clouds at 1100 feet AGL
Weather: no significant weather observed at this time

METAR text: FOOL 200700Z 16010KT 9000 SCT011 25/22 Q1014 NOSIG
Conditions at: FOOL (LIBREVILLE/LEON , GA) observed 0700 UTC 20 August 2019
Temperature: 25.0°C (77°F)
Dewpoint: 22.0°C (72°F) [RH = 83%]
Pressure (altimeter): 29.94 inches Hg (1014.0 mb)
Winds: from the SSE (160 degrees) at 12 MPH (10 knots; 5.1 m/s)
Visibility: 6 miles ( 9 km)
Ceiling: at least 12,000 feet AGL
Clouds: scattered clouds at 1100 feet AGL
Weather: no significant weather observed at this time

METAR text: FOOL 200630Z 17009KT 9999 FEW011 25/21 Q1013 NOSIG
Conditions at: FOOL (LIBREVILLE/LEON , GA) observed 0630 UTC 20 August 2019
Temperature: 25.0°C (77°F)
Dewpoint: 21.0°C (70°F) [RH = 79%]
Pressure (altimeter): 29.91 inches Hg (1013.0 mb)
Winds: from the S (170 degrees) at 10 MPH (9 knots; 4.6 m/s)
Visibility: 6 or more miles (10+ km)
Ceiling: at least 12,000 feet AGL
Clouds: few clouds at 1100 feet AGL
Weather: no significant weather observed at this time

METAR text: FOOL 200600Z 17009KT 9000 FEW010 24/21 Q1013 NOSIG
Conditions at: FOOL (LIBREVILLE/LEON , GA) observed 0600 UTC 20 August 2019
Temperature: 24.0°C (75°F)
Dewpoint: 21.0°C (70°F) [RH = 83%]
Pressure (altimeter): 29.91 inches Hg (1013.0 mb)
Winds: from the S (170 degrees) at 10 MPH (9 knots; 4.6 m/s)
Visibility: 6 miles ( 9 km)
Ceiling: at least 12,000 feet AGL
Clouds: few clouds at 1000 feet AGL
Weather: no significant weather observed at this time

METAR text: FOOL 200530Z 17008KT 9999 FEW012 24/21 Q1013 NOSIG
Conditions at: FOOL (LIBREVILLE/LEON , GA) observed 0530 UTC 20 August 2019
Temperature: 24.0°C (75°F)
Dewpoint: 21.0°C (70°F) [RH = 83%]
Pressure (altimeter): 29.91 inches Hg (1013.0 mb)
Winds: from the S (170 degrees) at 9 MPH (8 knots; 4.1 m/s)
Visibility: 6 or more miles (10+ km)
Ceiling: at least 12,000 feet AGL
Clouds: few clouds at 1200 feet AGL
Weather: no significant weather observed at this time

METAR text: FOOL 200500Z 15006KT 9999 FEW012 25/21 Q1013 NOSIG
Conditions at: FOOL (LIBREVILLE/LEON , GA) observed 0500 UTC 20 August 2019
Temperature: 25.0°C (77°F)
Dewpoint: 21.0°C (70°F) [RH = 79%]
Pressure (altimeter): 29.91 inches Hg (1013.0 mb)
Winds: from the SSE (150 degrees) at 7 MPH (6 knots; 3.1 m/s)
Visibility: 6 or more miles (10+ km)
Ceiling: at least 12,000 feet AGL
Clouds: few clouds at 1200 feet AGL
Weather: no significant weather observed at this time

METAR text: FOOL 200400Z 15006KT 9999 SCT012 25/22 Q1013 NOSIG
Conditions at: FOOL (LIBREVILLE/LEON , GA) observed 0400 UTC 20 August 2019
Temperature: 25.0°C (77°F)
Dewpoint: 22.0°C (72°F) [RH = 83%]
Pressure (altimeter): 29.91 inches Hg (1013.0 mb)
Winds: from the SSE (150 degrees) at 7 MPH (6 knots; 3.1 m/s)
Visibility: 6 or more miles (10+ km)
Ceiling: at least 12,000 feet AGL
Clouds: scattered clouds at 1200 feet AGL
Weather: no significant weather observed at this time

METAR text: FOOL 200230Z 15006KT 9999 SCT012 25/22 Q1013 NOSIG
Conditions at: FOOL (LIBREVILLE/LEON , GA) observed 0230 UTC 20 August 2019
Temperature: 25.0°C (77°F)
Dewpoint: 22.0°C (72°F) [RH = 83%]
Pressure (altimeter): 29.91 inches Hg (1013.0 mb)
Winds: from the SSE (150 degrees) at 7 MPH (6 knots; 3.1 m/s)
Visibility: 6 or more miles (10+ km)
Ceiling: at least 12,000 feet AGL
Clouds: scattered clouds at 1200 feet AGL
Weather: no significant weather observed at this time

METAR text: FOOL 200200Z 18006KT 9999 SCT012 25/22 Q1013 NOSIG
Conditions at: FOOL (LIBREVILLE/LEON , GA) observed 0200 UTC 20 August 2019
Temperature: 25.0°C (77°F)
Dewpoint: 22.0°C (72°F) [RH = 83%]
Pressure (altimeter): 29.91 inches Hg (1013.0 mb)
Winds: from the S (180 degrees) at 7 MPH (6 knots; 3.1 m/s)
Visibility: 6 or more miles (10+ km)
Ceiling: at least 12,000 feet AGL
Clouds: scattered clouds at 1200 feet AGL
Weather: no significant weather observed at this time

METAR text: FOOL 200130Z 18006KT 9999 SCT012 25/22 Q1013 NOSIG
Conditions at: FOOL (LIBREVILLE/LEON , GA) observed 0130 UTC 20 August 2019
Temperature: 25.0°C (77°F)
Dewpoint: 22.0°C (72°F) [RH = 83%]
Pressure (altimeter): 29.91 inches Hg (1013.0 mb)
Winds: from the S (180 degrees) at 7 MPH (6 knots; 3.1 m/s)
Visibility: 6 or more miles (10+ km)
Ceiling: at least 12,000 feet AGL
Clouds: scattered clouds at 1200 feet AGL
Weather: no significant weather observed at this time

METAR text: FOOL 200100Z 18006KT 150V230 9999 SCT012 25/22 Q1013 NOSIG
Conditions at: FOOL (LIBREVILLE/LEON , GA) observed 0100 UTC 20 August 2019
Temperature: 25.0°C (77°F)
Dewpoint: 22.0°C (72°F) [RH = 83%]
Pressure (altimeter): 29.91 inches Hg (1013.0 mb)
Winds: from the S (180 degrees) at 7 MPH (6 knots; 3.1 m/s)
Visibility: 6 or more miles (10+ km)
Ceiling: at least 12,000 feet AGL
Clouds: scattered clouds at 1200 feet AGL
Weather: no significant weather observed at this time

METAR text: FOOL 200030Z 20006KT 170V240 9999 SCT012 25/22 Q1013 NOSIG
Conditions at: FOOL (LIBREVILLE/LEON , GA) observed 0030 UTC 20 August 2019
Temperature: 25.0°C (77°F)
Dewpoint: 22.0°C (72°F) [RH = 83%]
Pressure (altimeter): 29.91 inches Hg (1013.0 mb)
Winds: from the SSW (200 degrees) at 7 MPH (6 knots; 3.1 m/s)
Visibility: 6 or more miles (10+ km)
Ceiling: at least 12,000 feet AGL
Clouds: scattered clouds at 1200 feet AGL
Weather: no significant weather observed at this time

METAR text: FOOL 200000Z 19006KT 160V220 9999 SCT012 25/22 Q1014 NOSIG
Conditions at: FOOL (LIBREVILLE/LEON , GA) observed 0000 UTC 20 August 2019
Temperature: 25.0°C (77°F)
Dewpoint: 22.0°C (72°F) [RH = 83%]
Pressure (altimeter): 29.94 inches Hg (1014.0 mb)
Winds: from the S (190 degrees) at 7 MPH (6 knots; 3.1 m/s)
Visibility: 6 or more miles (10+ km)
Ceiling: at least 12,000 feet AGL
Clouds: scattered clouds at 1200 feet AGL
Weather: no significant weather observed at this time

METAR text: FOOL 192330Z 19007KT 170V230 9999 SCT012 25/22 Q1014 NOSIG
Conditions at: FOOL (LIBREVILLE/LEON , GA) observed 2330 UTC 19 August 2019
Temperature: 25.0°C (77°F)
Dewpoint: 22.0°C (72°F) [RH = 83%]
Pressure (altimeter): 29.94 inches Hg (1014.0 mb)
Winds: from the S (190 degrees) at 8 MPH (7 knots; 3.6 m/s)
Visibility: 6 or more miles (10+ km)
Ceiling: at least 12,000 feet AGL
Clouds: scattered clouds at 1200 feet AGL
Weather: no significant weather observed at this time

METAR text: FOOL 192300Z 19009KT 160V230 9999 SCT012 25/22 Q1014 NOSIG
Conditions at: FOOL (LIBREVILLE/LEON , GA) observed 2300 UTC 19 August 2019
Temperature: 25.0°C (77°F)
Dewpoint: 22.0°C (72°F) [RH = 83%]
Pressure (altimeter): 29.94 inches Hg (1014.0 mb)
Winds: from the S (190 degrees) at 10 MPH (9 knots; 4.6 m/s)
Visibility: 6 or more miles (10+ km)
Ceiling: at least 12,000 feet AGL
Clouds: scattered clouds at 1200 feet AGL
Weather: no significant weather observed at this time

METAR text: FOOL 192230Z 20010KT 9999 FEW012 26/22 Q1014 NOSIG
Conditions at: FOOL (LIBREVILLE/LEON , GA) observed 2230 UTC 19 August 2019
Temperature: 26.0°C (79°F)
Dewpoint: 22.0°C (72°F) [RH = 79%]
Pressure (altimeter): 29.94 inches Hg (1014.0 mb)
Winds: from the SSW (200 degrees) at 12 MPH (10 knots; 5.1 m/s)
Visibility: 6 or more miles (10+ km)
Ceiling: at least 12,000 feet AGL
Clouds: few clouds at 1200 feet AGL
Weather: no significant weather observed at this time

METAR text: FOOL 192200Z 21008KT 180V240 9999 FEW012 26/22 Q1014 NOSIG
Conditions at: FOOL (LIBREVILLE/LEON , GA) observed 2200 UTC 19 August 2019
Temperature: 26.0°C (79°F)
Dewpoint: 22.0°C (72°F) [RH = 79%]
Pressure (altimeter): 29.94 inches Hg (1014.0 mb)
Winds: from the SSW (210 degrees) at 9 MPH (8 knots; 4.1 m/s)
Visibility: 6 or more miles (10+ km)
Ceiling: at least 12,000 feet AGL
Clouds: few clouds at 1200 feet AGL
Weather: no significant weather observed at this time

METAR text: FOOL 192130Z 21008KT 180V240 9999 FEW012 26/22 Q1014 NOSIG
Conditions at: FOOL (LIBREVILLE/LEON , GA) observed 2130 UTC 19 August 2019
Temperature: 26.0°C (79°F)
Dewpoint: 22.0°C (72°F) [RH = 79%]
Pressure (altimeter): 29.94 inches Hg (1014.0 mb)
Winds: from the SSW (210 degrees) at 9 MPH (8 knots; 4.1 m/s)
Visibility: 6 or more miles (10+ km)
Ceiling: at least 12,000 feet AGL
Clouds: few clouds at 1200 feet AGL
Weather: no significant weather observed at this time

METAR text: FOOL 192100Z 21007KT 170V240 9999 FEW012 26/23 Q1014 NOSIG
Conditions at: FOOL (LIBREVILLE/LEON , GA) observed 2100 UTC 19 August 2019
Temperature: 26.0°C (79°F)
Dewpoint: 23.0°C (73°F) [RH = 84%]
Pressure (altimeter): 29.94 inches Hg (1014.0 mb)
Winds: from the SSW (210 degrees) at 8 MPH (7 knots; 3.6 m/s)
Visibility: 6 or more miles (10+ km)
Ceiling: at least 12,000 feet AGL
Clouds: few clouds at 1200 feet AGL
Weather: no significant weather observed at this time

METAR text: FOOL 192030Z 22006KT 190V260 9999 FEW012 26/23 Q1014 NOSIG
Conditions at: FOOL (LIBREVILLE/LEON , GA) observed 2030 UTC 19 August 2019
Temperature: 26.0°C (79°F)
Dewpoint: 23.0°C (73°F) [RH = 84%]
Pressure (altimeter): 29.94 inches Hg (1014.0 mb)
Winds: from the SW (220 degrees) at 7 MPH (6 knots; 3.1 m/s)
Visibility: 6 or more miles (10+ km)
Ceiling: at least 12,000 feet AGL
Clouds: few clouds at 1200 feet AGL
Weather: no significant weather observed at this time

METAR text: FOOL 192000Z 22007KT 190V260 9999 FEW012 26/23 Q1013 NOSIG
Conditions at: FOOL (LIBREVILLE/LEON , GA) observed 2000 UTC 19 August 2019
Temperature: 26.0°C (79°F)
Dewpoint: 23.0°C (73°F) [RH = 84%]
Pressure (altimeter): 29.91 inches Hg (1013.0 mb)
Winds: from the SW (220 degrees) at 8 MPH (7 knots; 3.6 m/s)
Visibility: 6 or more miles (10+ km)
Ceiling: at least 12,000 feet AGL
Clouds: few clouds at 1200 feet AGL
Weather: no significant weather observed at this time

METAR text: FOOL 191930Z 22007KT 9999 FEW012 26/23 Q1013 NOSIG
Conditions at: FOOL (LIBREVILLE/LEON , GA) observed 1930 UTC 19 August 2019
Temperature: 26.0°C (79°F)
Dewpoint: 23.0°C (73°F) [RH = 84%]
Pressure (altimeter): 29.91 inches Hg (1013.0 mb)
Winds: from the SW (220 degrees) at 8 MPH (7 knots; 3.6 m/s)
Visibility: 6 or more miles (10+ km)
Ceiling: at least 12,000 feet AGL
Clouds: few clouds at 1200 feet AGL
Weather: no significant weather observed at this time

METAR text: FOOL 191900Z 23007KT 200V260 9999 FEW012 26/23 Q1012 NOSIG
Conditions at: FOOL (LIBREVILLE/LEON , GA) observed 1900 UTC 19 August 2019
Temperature: 26.0°C (79°F)
Dewpoint: 23.0°C (73°F) [RH = 84%]
Pressure (altimeter): 29.88 inches Hg (1012.0 mb)
Winds: from the SW (230 degrees) at 8 MPH (7 knots; 3.6 m/s)
Visibility: 6 or more miles (10+ km)
Ceiling: at least 12,000 feet AGL
Clouds: few clouds at 1200 feet AGL
Weather: no significant weather observed at this time

METAR text: FOOL 191830Z 22007KT 190V260 9999 FEW012 26/22 Q1012 NOSIG
Conditions at: FOOL (LIBREVILLE/LEON , GA) observed 1830 UTC 19 August 2019
Temperature: 26.0°C (79°F)
Dewpoint: 22.0°C (72°F) [RH = 79%]
Pressure (altimeter): 29.88 inches Hg (1012.0 mb)
Winds: from the SW (220 degrees) at 8 MPH (7 knots; 3.6 m/s)
Visibility: 6 or more miles (10+ km)
Ceiling: at least 12,000 feet AGL
Clouds: few clouds at 1200 feet AGL
Weather: no significant weather observed at this time

METAR text: FOOL 191800Z 22006KT 190V260 9999 FEW012 26/22 Q1012 NOSIG
Conditions at: FOOL (LIBREVILLE/LEON , GA) observed 1800 UTC 19 August 2019
Temperature: 26.0°C (79°F)
Dewpoint: 22.0°C (72°F) [RH = 79%]
Pressure (altimeter): 29.88 inches Hg (1012.0 mb)
Winds: from the SW (220 degrees) at 7 MPH (6 knots; 3.1 m/s)
Visibility: 6 or more miles (10+ km)
Ceiling: at least 12,000 feet AGL
Clouds: few clouds at 1200 feet AGL
Weather: no significant weather observed at this time

METAR text: FOOL 191730Z 23006KT 200V270 9999 FEW012 26/22 Q1012 NOSIG
Conditions at: FOOL (LIBREVILLE/LEON , GA) observed 1730 UTC 19 August 2019
Temperature: 26.0°C (79°F)
Dewpoint: 22.0°C (72°F) [RH = 79%]
Pressure (altimeter): 29.88 inches Hg (1012.0 mb)
Winds: from the SW (230 degrees) at 7 MPH (6 knots; 3.1 m/s)
Visibility: 6 or more miles (10+ km)
Ceiling: at least 12,000 feet AGL
Clouds: few clouds at 1200 feet AGL
Weather: no significant weather observed at this time

METAR text: FOOL 191700Z 24006KT 210V270 9999 FEW012 SCT043 27/22 Q1012 NOSIG
Conditions at: FOOL (LIBREVILLE/LEON , GA) observed 1700 UTC 19 August 2019
Temperature: 27.0°C (81°F)
Dewpoint: 22.0°C (72°F) [RH = 74%]
Pressure (altimeter): 29.88 inches Hg (1012.0 mb)
Winds: from the WSW (240 degrees) at 7 MPH (6 knots; 3.1 m/s)
Visibility: 6 or more miles (10+ km)
Ceiling: at least 12,000 feet AGL
Clouds: few clouds at 1200 feet AGL
scattered clouds at 4300 feet AGL
Weather: no significant weather observed at this time

METAR text: FOOL 191630Z 24007KT 210V270 9999 FEW013 SCT043 27/22 Q1011 NOSIG
Conditions at: FOOL (LIBREVILLE/LEON , GA) observed 1630 UTC 19 August 2019
Temperature: 27.0°C (81°F)
Dewpoint: 22.0°C (72°F) [RH = 74%]
Pressure (altimeter): 29.85 inches Hg (1011.0 mb)
Winds: from the WSW (240 degrees) at 8 MPH (7 knots; 3.6 m/s)
Visibility: 6 or more miles (10+ km)
Ceiling: at least 12,000 feet AGL
Clouds: few clouds at 1300 feet AGL
scattered clouds at 4300 feet AGL
Weather: no significant weather observed at this time

METAR text: FOOL 191600Z 24007KT 210V270 9999 FEW013 SCT043 28/22 Q1011 NOSIG
Conditions at: FOOL (LIBREVILLE/LEON , GA) observed 1600 UTC 19 August 2019
Temperature: 28.0°C (82°F)
Dewpoint: 22.0°C (72°F) [RH = 70%]
Pressure (altimeter): 29.85 inches Hg (1011.0 mb)
Winds: from the WSW (240 degrees) at 8 MPH (7 knots; 3.6 m/s)
Visibility: 6 or more miles (10+ km)
Ceiling: at least 12,000 feet AGL
Clouds: few clouds at 1300 feet AGL
scattered clouds at 4300 feet AGL
Weather: no significant weather observed at this time

METAR text: FOOL 191530Z 24006KT 190V270 9999 FEW013 SCT043 28/23 Q1011 NOSIG
Conditions at: FOOL (LIBREVILLE/LEON , GA) observed 1530 UTC 19 August 2019
Temperature: 28.0°C (82°F)
Dewpoint: 23.0°C (73°F) [RH = 74%]
Pressure (altimeter): 29.85 inches Hg (1011.0 mb)
Winds: from the WSW (240 degrees) at 7 MPH (6 knots; 3.1 m/s)
Visibility: 6 or more miles (10+ km)
Ceiling: at least 12,000 feet AGL
Clouds: few clouds at 1300 feet AGL
scattered clouds at 4300 feet AGL
Weather: no significant weather observed at this time

METAR text: FOOL 191500Z 25007KT 220V280 9999 FEW013 28/22 Q1011 NOSIG
Conditions at: FOOL (LIBREVILLE/LEON , GA) observed 1500 UTC 19 August 2019
Temperature: 28.0°C (82°F)
Dewpoint: 22.0°C (72°F) [RH = 70%]
Pressure (altimeter): 29.85 inches Hg (1011.0 mb)
Winds: from the WSW (250 degrees) at 8 MPH (7 knots; 3.6 m/s)
Visibility: 6 or more miles (10+ km)
Ceiling: at least 12,000 feet AGL
Clouds: few clouds at 1300 feet AGL
Weather: no significant weather observed at this time

METAR text: FOOL 191430Z 24007KT 200V270 9999 FEW013 28/22 Q1011 NOSIG
Conditions at: FOOL (LIBREVILLE/LEON , GA) observed 1430 UTC 19 August 2019
Temperature: 28.0°C (82°F)
Dewpoint: 22.0°C (72°F) [RH = 70%]
Pressure (altimeter): 29.85 inches Hg (1011.0 mb)
Winds: from the WSW (240 degrees) at 8 MPH (7 knots; 3.6 m/s)
Visibility: 6 or more miles (10+ km)
Ceiling: at least 12,000 feet AGL
Clouds: few clouds at 1300 feet AGL
Weather: no significant weather observed at this time

METAR text: FOOL 191400Z 24008KT 200V270 9999 FEW013 28/22 Q1011 NOSIG
Conditions at: FOOL (LIBREVILLE/LEON , GA) observed 1400 UTC 19 August 2019
Temperature: 28.0°C (82°F)
Dewpoint: 22.0°C (72°F) [RH = 70%]
Pressure (altimeter): 29.85 inches Hg (1011.0 mb)
Winds: from the WSW (240 degrees) at 9 MPH (8 knots; 4.1 m/s)
Visibility: 6 or more miles (10+ km)
Ceiling: at least 12,000 feet AGL
Clouds: few clouds at 1300 feet AGL
Weather: no significant weather observed at this time

METAR text: FOOL 191330Z 23007KT 200V270 9999 FEW014 28/22 Q1012 NOSIG
Conditions at: FOOL (LIBREVILLE/LEON , GA) observed 1330 UTC 19 August 2019
Temperature: 28.0°C (82°F)
Dewpoint: 22.0°C (72°F) [RH = 70%]
Pressure (altimeter): 29.88 inches Hg (1012.0 mb)
Winds: from the SW (230 degrees) at 8 MPH (7 knots; 3.6 m/s)
Visibility: 6 or more miles (10+ km)
Ceiling: at least 12,000 feet AGL
Clouds: few clouds at 1400 feet AGL
Weather: no significant weather observed at this time

METAR text: FOOL 191300Z 23008KT 200V260 9999 FEW014 29/23 Q1012 NOSIG
Conditions at: FOOL (LIBREVILLE/LEON , GA) observed 1300 UTC 19 August 2019
Temperature: 29.0°C (84°F)
Dewpoint: 23.0°C (73°F) [RH = 70%]
Pressure (altimeter): 29.88 inches Hg (1012.0 mb)
Winds: from the SW (230 degrees) at 9 MPH (8 knots; 4.1 m/s)
Visibility: 6 or more miles (10+ km)
Ceiling: at least 12,000 feet AGL
Clouds: few clouds at 1400 feet AGL
Weather: no significant weather observed at this time

METAR text: FOOL 191200Z 21004KT 9999 FEW012 29/22 Q1013 NOSIG
Conditions at: FOOL (LIBREVILLE/LEON , GA) observed 1200 UTC 19 August 2019
Temperature: 29.0°C (84°F)
Dewpoint: 22.0°C (72°F) [RH = 66%]
Pressure (altimeter): 29.91 inches Hg (1013.0 mb)
Winds: from the SSW (210 degrees) at 5 MPH (4 knots; 2.1 m/s)
Visibility: 6 or more miles (10+ km)
Ceiling: at least 12,000 feet AGL
Clouds: few clouds at 1200 feet AGL
Weather: no significant weather observed at this time

METAR text: FOOL 191100Z 20006KT 9999 SCT012 28/22 Q1014 NOSIG
Conditions at: FOOL (LIBREVILLE/LEON , GA) observed 1100 UTC 19 August 2019
Temperature: 28.0°C (82°F)
Dewpoint: 22.0°C (72°F) [RH = 70%]
Pressure (altimeter): 29.94 inches Hg (1014.0 mb)
Winds: from the SSW (200 degrees) at 7 MPH (6 knots; 3.1 m/s)
Visibility: 6 or more miles (10+ km)
Ceiling: at least 12,000 feet AGL
Clouds: scattered clouds at 1200 feet AGL
Weather: no significant weather observed at this time

METAR text: FOOL 191030Z 18006KT 9999 SCT012 28/21 Q1014 NOSIG
Conditions at: FOOL (LIBREVILLE/LEON , GA) observed 1030 UTC 19 August 2019
Temperature: 28.0°C (82°F)
Dewpoint: 21.0°C (70°F) [RH = 66%]
Pressure (altimeter): 29.94 inches Hg (1014.0 mb)
Winds: from the S (180 degrees) at 7 MPH (6 knots; 3.1 m/s)
Visibility: 6 or more miles (10+ km)
Ceiling: at least 12,000 feet AGL
Clouds: scattered clouds at 1200 feet AGL
Weather: no significant weather observed at this time

METAR text: FOOL 191000Z 18006KT 9999 SCT012 27/22 Q1015 NOSIG
Conditions at: FOOL (LIBREVILLE/LEON , GA) observed 1000 UTC 19 August 2019
Temperature: 27.0°C (81°F)
Dewpoint: 22.0°C (72°F) [RH = 74%]
Pressure (altimeter): 29.97 inches Hg (1015.0 mb)
Winds: from the S (180 degrees) at 7 MPH (6 knots; 3.1 m/s)
Visibility: 6 or more miles (10+ km)
Ceiling: at least 12,000 feet AGL
Clouds: scattered clouds at 1200 feet AGL
Weather: no significant weather observed at this time

METAR text: FOOL 190930Z 17009KT 9999 SCT012 26/21 Q1015 NOSIG
Conditions at: FOOL (LIBREVILLE/LEON , GA) observed 0930 UTC 19 August 2019
Temperature: 26.0°C (79°F)
Dewpoint: 21.0°C (70°F) [RH = 74%]
Pressure (altimeter): 29.97 inches Hg (1015.0 mb)
Winds: from the S (170 degrees) at 10 MPH (9 knots; 4.6 m/s)
Visibility: 6 or more miles (10+ km)
Ceiling: at least 12,000 feet AGL
Clouds: scattered clouds at 1200 feet AGL
Weather: no significant weather observed at this time

METAR text: FOOL 190900Z 17010KT 9999 SCT012 26/21 Q1015 NOSIG
Conditions at: FOOL (LIBREVILLE/LEON , GA) observed 0900 UTC 19 August 2019
Temperature: 26.0°C (79°F)
Dewpoint: 21.0°C (70°F) [RH = 74%]
Pressure (altimeter): 29.97 inches Hg (1015.0 mb)
Winds: from the S (170 degrees) at 12 MPH (10 knots; 5.1 m/s)
Visibility: 6 or more miles (10+ km)
Ceiling: at least 12,000 feet AGL
Clouds: scattered clouds at 1200 feet AGL
Weather: no significant weather observed at this time

METAR text: FOOL 190830Z 17010KT 9999 SCT012 25/22 Q1015 NOSIG
Conditions at: FOOL (LIBREVILLE/LEON , GA) observed 0830 UTC 19 August 2019
Temperature: 25.0°C (77°F)
Dewpoint: 22.0°C (72°F) [RH = 83%]
Pressure (altimeter): 29.97 inches Hg (1015.0 mb)
Winds: from the S (170 degrees) at 12 MPH (10 knots; 5.1 m/s)
Visibility: 6 or more miles (10+ km)
Ceiling: at least 12,000 feet AGL
Clouds: scattered clouds at 1200 feet AGL
Weather: no significant weather observed at this time

Forecast for: FOOL (LIBREVILLE/LEON , GA)
Text: TAF FOOL 201709Z 2018/2124 21008KT 9999 SCT011 BKN030
Forecast period: 1800 UTC 20 August 2019 to 0000 UTC 22 August 2019
Forecast type: FROM: standard forecast or significant change
Winds: from the SSW (210 degrees) at 9 MPH (8 knots; 4.1 m/s)
Visibility: 6 or more miles 10+ km)
Ceiling: 3000 feet AGL
Clouds: scattered clouds at 1100 feet AGL
broken clouds at 3000 feet AGL
Weather: no significant weather forecast for this period